sensor_id;sensor_type;location;lat;lon;timestamp;P1;durP1;ratioP1;P2;durP2;ratioP2
54795;SDS011;40693;43.884;20.340;2023-05-10T00:00:14;6.88;;;5.10;;
54795;SDS011;40693;43.884;20.340;2023-05-10T00:02:40;7.88;;;4.95;;
54795;SDS011;40693;43.884;20.340;2023-05-10T00:05:07;4.97;;;4.35;;
54795;SDS011;40693;43.884;20.340;2023-05-10T00:07:33;8.98;;;5.13;;
54795;SDS011;40693;43.884;20.340;2023-05-10T00:09:58;7.75;;;5.03;;
54795;SDS011;40693;43.884;20.340;2023-05-10T00:12:24;6.63;;;4.63;;
54795;SDS011;40693;43.884;20.340;2023-05-10T00:14:50;6.10;;;4.28;;
54795;SDS011;40693;43.884;20.340;2023-05-10T00:17:16;7.20;;;4.72;;
54795;SDS011;40693;43.884;20.340;2023-05-10T00:19:41;6.75;;;4.90;;
54795;SDS011;40693;43.884;20.340;2023-05-10T00:22:07;6.47;;;4.65;;
54795;SDS011;40693;43.884;20.340;2023-05-10T00:24:33;11.70;;;5.15;;
54795;SDS011;40693;43.884;20.340;2023-05-10T00:26:59;6.90;;;5.28;;
54795;SDS011;40693;43.884;20.340;2023-05-10T00:29:25;11.10;;;5.88;;
54795;SDS011;40693;43.884;20.340;2023-05-10T00:31:53;7.75;;;5.15;;
54795;SDS011;40693;43.884;20.340;2023-05-10T00:34:18;8.02;;;5.28;;
54795;SDS011;40693;43.884;20.340;2023-05-10T00:36:44;7.80;;;5.35;;
54795;SDS011;40693;43.884;20.340;2023-05-10T00:39:10;10.13;;;5.97;;
54795;SDS011;40693;43.884;20.340;2023-05-10T00:41:36;8.30;;;5.38;;
54795;SDS011;40693;43.884;20.340;2023-05-10T00:44:02;7.18;;;5.07;;
54795;SDS011;40693;43.884;20.340;2023-05-10T00:46:27;8.45;;;5.30;;
54795;SDS011;40693;43.884;20.340;2023-05-10T00:48:54;8.25;;;5.45;;
54795;SDS011;40693;43.884;20.340;2023-05-10T00:51:20;10.02;;;5.85;;
54795;SDS011;40693;43.884;20.340;2023-05-10T00:53:45;6.88;;;4.90;;
54795;SDS011;40693;43.884;20.340;2023-05-10T00:56:12;8.77;;;6.07;;
54795;SDS011;40693;43.884;20.340;2023-05-10T00:58:38;7.80;;;5.28;;
54795;SDS011;40693;43.884;20.340;2023-05-10T01:01:05;8.52;;;5.75;;
54795;SDS011;40693;43.884;20.340;2023-05-10T01:03:32;8.90;;;5.75;;
54795;SDS011;40693;43.884;20.340;2023-05-10T01:05:58;9.25;;;6.25;;
54795;SDS011;40693;43.884;20.340;2023-05-10T01:08:24;11.77;;;6.13;;
54795;SDS011;40693;43.884;20.340;2023-05-10T01:10:50;9.30;;;6.40;;
54795;SDS011;40693;43.884;20.340;2023-05-10T01:13:18;9.70;;;6.85;;
54795;SDS011;40693;43.884;20.340;2023-05-10T01:15:54;8.90;;;6.43;;
54795;SDS011;40693;43.884;20.340;2023-05-10T01:18:21;10.20;;;5.97;;
54795;SDS011;40693;43.884;20.340;2023-05-10T01:20:48;8.50;;;5.97;;
54795;SDS011;40693;43.884;20.340;2023-05-10T01:23:35;8.65;;;5.43;;
54795;SDS011;40693;43.884;20.340;2023-05-10T01:29:23;10.15;;;6.57;;
54795;SDS011;40693;43.884;20.340;2023-05-10T01:34:35;8.55;;;5.72;;
54795;SDS011;40693;43.884;20.340;2023-05-10T01:37:07;9.10;;;5.90;;
54795;SDS011;40693;43.884;20.340;2023-05-10T01:42:19;7.88;;;5.50;;
54795;SDS011;40693;43.884;20.340;2023-05-10T01:47:31;8.80;;;6.40;;
54795;SDS011;40693;43.884;20.340;2023-05-10T01:50:01;9.80;;;6.95;;
54795;SDS011;40693;43.884;20.340;2023-05-10T01:52:38;8.20;;;5.80;;
54795;SDS011;40693;43.884;20.340;2023-05-10T01:55:09;9.10;;;5.78;;
54795;SDS011;40693;43.884;20.340;2023-05-10T01:57:39;7.90;;;5.05;;
54795;SDS011;40693;43.884;20.340;2023-05-10T02:00:09;6.68;;;5.18;;
54795;SDS011;40693;43.884;20.340;2023-05-10T02:02:39;7.68;;;5.53;;
54795;SDS011;40693;43.884;20.340;2023-05-10T02:07:37;7.85;;;5.38;;
54795;SDS011;40693;43.884;20.340;2023-05-10T02:10:04;11.70;;;5.15;;
54795;SDS011;40693;43.884;20.340;2023-05-10T02:12:35;6.75;;;5.00;;
54795;SDS011;40693;43.884;20.340;2023-05-10T02:15:03;6.10;;;4.65;;
54795;SDS011;40693;43.884;20.340;2023-05-10T02:17:31;7.35;;;5.18;;
54795;SDS011;40693;43.884;20.340;2023-05-10T02:19:58;6.53;;;4.90;;
54795;SDS011;40693;43.884;20.340;2023-05-10T02:22:26;7.40;;;5.10;;
54795;SDS011;40693;43.884;20.340;2023-05-10T02:24:54;7.40;;;5.05;;
54795;SDS011;40693;43.884;20.340;2023-05-10T02:27:23;7.40;;;5.65;;
54795;SDS011;40693;43.884;20.340;2023-05-10T02:29:50;8.50;;;5.55;;
54795;SDS011;40693;43.884;20.340;2023-05-10T02:32:17;7.65;;;5.43;;
54795;SDS011;40693;43.884;20.340;2023-05-10T02:34:44;8.68;;;6.20;;
54795;SDS011;40693;43.884;20.340;2023-05-10T02:37:14;8.52;;;5.70;;
54795;SDS011;40693;43.884;20.340;2023-05-10T02:39:43;7.70;;;5.35;;
54795;SDS011;40693;43.884;20.340;2023-05-10T02:42:14;9.40;;;6.03;;
54795;SDS011;40693;43.884;20.340;2023-05-10T02:44:43;7.35;;;5.45;;
54795;SDS011;40693;43.884;20.340;2023-05-10T02:47:15;8.10;;;6.28;;
54795;SDS011;40693;43.884;20.340;2023-05-10T02:49:42;12.43;;;6.22;;
54795;SDS011;40693;43.884;20.340;2023-05-10T02:52:08;6.90;;;4.80;;
54795;SDS011;40693;43.884;20.340;2023-05-10T02:54:39;7.65;;;5.05;;
54795;SDS011;40693;43.884;20.340;2023-05-10T02:57:11;9.32;;;5.60;;
54795;SDS011;40693;43.884;20.340;2023-05-10T02:59:41;10.18;;;5.85;;
54795;SDS011;40693;43.884;20.340;2023-05-10T03:02:10;9.43;;;5.85;;
54795;SDS011;40693;43.884;20.340;2023-05-10T03:04:40;10.52;;;6.00;;
54795;SDS011;40693;43.884;20.340;2023-05-10T03:07:06;10.25;;;6.22;;
54795;SDS011;40693;43.884;20.340;2023-05-10T03:09:32;6.22;;;5.32;;
54795;SDS011;40693;43.884;20.340;2023-05-10T03:12:15;10.02;;;5.97;;
54795;SDS011;40693;43.884;20.340;2023-05-10T03:17:43;8.82;;;5.63;;
54795;SDS011;40693;43.884;20.340;2023-05-10T03:20:12;9.10;;;6.10;;
54795;SDS011;40693;43.884;20.340;2023-05-10T03:22:47;9.90;;;5.90;;
54795;SDS011;40693;43.884;20.340;2023-05-10T03:25:18;8.25;;;5.88;;
54795;SDS011;40693;43.884;20.340;2023-05-10T03:27:47;9.57;;;6.20;;
54795;SDS011;40693;43.884;20.340;2023-05-10T03:30:14;10.27;;;6.07;;
54795;SDS011;40693;43.884;20.340;2023-05-10T03:32:41;7.72;;;5.45;;
54795;SDS011;40693;43.884;20.340;2023-05-10T03:35:10;10.50;;;6.40;;
54795;SDS011;40693;43.884;20.340;2023-05-10T03:37:38;8.93;;;6.28;;
54795;SDS011;40693;43.884;20.340;2023-05-10T03:40:04;9.00;;;5.55;;
54795;SDS011;40693;43.884;20.340;2023-05-10T03:42:30;8.82;;;5.20;;
54795;SDS011;40693;43.884;20.340;2023-05-10T03:44:56;7.55;;;5.97;;
54795;SDS011;40693;43.884;20.340;2023-05-10T03:47:22;8.43;;;5.53;;
54795;SDS011;40693;43.884;20.340;2023-05-10T03:49:48;8.75;;;5.90;;
54795;SDS011;40693;43.884;20.340;2023-05-10T03:52:14;7.80;;;5.72;;
54795;SDS011;40693;43.884;20.340;2023-05-10T03:54:40;8.40;;;5.57;;
54795;SDS011;40693;43.884;20.340;2023-05-10T03:57:08;10.55;;;5.45;;
54795;SDS011;40693;43.884;20.340;2023-05-10T03:59:34;8.85;;;6.45;;
54795;SDS011;40693;43.884;20.340;2023-05-10T04:02:00;9.07;;;6.35;;
54795;SDS011;40693;43.884;20.340;2023-05-10T04:04:26;10.38;;;6.45;;
54795;SDS011;40693;43.884;20.340;2023-05-10T04:06:52;8.52;;;6.53;;
54795;SDS011;40693;43.884;20.340;2023-05-10T04:09:17;8.50;;;5.22;;
54795;SDS011;40693;43.884;20.340;2023-05-10T04:11:43;8.60;;;5.78;;
54795;SDS011;40693;43.884;20.340;2023-05-10T04:14:09;9.40;;;6.55;;
54795;SDS011;40693;43.884;20.340;2023-05-10T04:16:35;7.78;;;5.57;;
54795;SDS011;40693;43.884;20.340;2023-05-10T04:19:01;7.15;;;5.25;;
54795;SDS011;40693;43.884;20.340;2023-05-10T04:21:29;7.35;;;5.35;;
54795;SDS011;40693;43.884;20.340;2023-05-10T04:23:55;8.68;;;5.45;;
54795;SDS011;40693;43.884;20.340;2023-05-10T04:26:21;7.28;;;5.25;;
54795;SDS011;40693;43.884;20.340;2023-05-10T04:28:47;7.45;;;4.72;;
54795;SDS011;40693;43.884;20.340;2023-05-10T04:31:12;7.40;;;5.32;;
54795;SDS011;40693;43.884;20.340;2023-05-10T04:33:38;7.15;;;5.05;;
54795;SDS011;40693;43.884;20.340;2023-05-10T04:36:04;8.10;;;5.45;;
54795;SDS011;40693;43.884;20.340;2023-05-10T04:38:33;5.57;;;5.03;;
54795;SDS011;40693;43.884;20.340;2023-05-10T04:41:08;8.23;;;4.97;;
54795;SDS011;40693;43.884;20.340;2023-05-10T04:43:34;7.70;;;5.38;;
54795;SDS011;40693;43.884;20.340;2023-05-10T04:46:01;6.88;;;5.35;;
54795;SDS011;40693;43.884;20.340;2023-05-10T04:48:27;8.05;;;5.63;;
54795;SDS011;40693;43.884;20.340;2023-05-10T04:50:53;8.27;;;5.22;;
54795;SDS011;40693;43.884;20.340;2023-05-10T04:53:19;7.95;;;5.53;;
54795;SDS011;40693;43.884;20.340;2023-05-10T04:55:44;8.77;;;5.18;;
54795;SDS011;40693;43.884;20.340;2023-05-10T04:58:11;22.50;;;13.13;;
54795;SDS011;40693;43.884;20.340;2023-05-10T05:00:37;11.00;;;6.63;;
54795;SDS011;40693;43.884;20.340;2023-05-10T05:03:03;11.85;;;5.00;;
54795;SDS011;40693;43.884;20.340;2023-05-10T05:05:29;6.97;;;4.28;;
54795;SDS011;40693;43.884;20.340;2023-05-10T05:07:55;6.97;;;4.90;;
54795;SDS011;40693;43.884;20.340;2023-05-10T05:10:21;10.15;;;5.65;;
54795;SDS011;40693;43.884;20.340;2023-05-10T05:12:47;11.35;;;5.68;;
54795;SDS011;40693;43.884;20.340;2023-05-10T05:15:12;5.72;;;4.30;;
54795;SDS011;40693;43.884;20.340;2023-05-10T05:17:38;6.38;;;4.82;;
54795;SDS011;40693;43.884;20.340;2023-05-10T05:20:04;6.35;;;4.70;;
54795;SDS011;40693;43.884;20.340;2023-05-10T05:22:30;12.02;;;5.50;;
54795;SDS011;40693;43.884;20.340;2023-05-10T05:24:56;10.30;;;5.65;;
54795;SDS011;40693;43.884;20.340;2023-05-10T05:27:27;12.05;;;5.72;;
54795;SDS011;40693;43.884;20.340;2023-05-10T05:29:53;9.38;;;6.35;;
54795;SDS011;40693;43.884;20.340;2023-05-10T05:32:19;7.18;;;5.20;;
54795;SDS011;40693;43.884;20.340;2023-05-10T05:34:45;7.88;;;4.70;;
54795;SDS011;40693;43.884;20.340;2023-05-10T05:37:15;6.40;;;4.28;;
54795;SDS011;40693;43.884;20.340;2023-05-10T05:39:41;6.88;;;4.13;;
54795;SDS011;40693;43.884;20.340;2023-05-10T05:42:08;6.03;;;4.18;;
54795;SDS011;40693;43.884;20.340;2023-05-10T05:44:34;9.20;;;5.20;;
54795;SDS011;40693;43.884;20.340;2023-05-10T05:47:00;5.70;;;4.15;;
54795;SDS011;40693;43.884;20.340;2023-05-10T05:49:26;7.05;;;4.70;;
54795;SDS011;40693;43.884;20.340;2023-05-10T05:51:52;5.82;;;4.47;;
54795;SDS011;40693;43.884;20.340;2023-05-10T05:54:18;7.30;;;4.20;;
54795;SDS011;40693;43.884;20.340;2023-05-10T05:56:43;4.82;;;3.90;;
54795;SDS011;40693;43.884;20.340;2023-05-10T05:59:10;6.30;;;4.50;;
54795;SDS011;40693;43.884;20.340;2023-05-10T06:01:36;9.02;;;5.13;;
54795;SDS011;40693;43.884;20.340;2023-05-10T06:04:02;7.20;;;4.57;;
54795;SDS011;40693;43.884;20.340;2023-05-10T06:06:28;7.13;;;5.45;;
54795;SDS011;40693;43.884;20.340;2023-05-10T06:08:54;6.95;;;4.47;;
54795;SDS011;40693;43.884;20.340;2023-05-10T06:11:20;5.45;;;4.05;;
54795;SDS011;40693;43.884;20.340;2023-05-10T06:13:48;6.05;;;4.40;;
54795;SDS011;40693;43.884;20.340;2023-05-10T06:16:14;6.18;;;4.05;;
54795;SDS011;40693;43.884;20.340;2023-05-10T06:18:40;5.45;;;4.30;;
54795;SDS011;40693;43.884;20.340;2023-05-10T06:21:06;4.85;;;3.80;;
54795;SDS011;40693;43.884;20.340;2023-05-10T06:23:32;5.85;;;4.10;;
54795;SDS011;40693;43.884;20.340;2023-05-10T06:25:58;5.53;;;3.67;;
54795;SDS011;40693;43.884;20.340;2023-05-10T06:28:24;8.27;;;5.00;;
54795;SDS011;40693;43.884;20.340;2023-05-10T06:30:49;4.93;;;3.55;;
54795;SDS011;40693;43.884;20.340;2023-05-10T06:33:15;5.15;;;3.60;;
54795;SDS011;40693;43.884;20.340;2023-05-10T06:35:41;6.20;;;3.88;;
54795;SDS011;40693;43.884;20.340;2023-05-10T06:38:07;8.18;;;5.60;;
54795;SDS011;40693;43.884;20.340;2023-05-10T06:40:32;5.13;;;3.58;;
54795;SDS011;40693;43.884;20.340;2023-05-10T06:42:58;10.45;;;5.78;;
54795;SDS011;40693;43.884;20.340;2023-05-10T06:45:24;7.13;;;4.13;;
54795;SDS011;40693;43.884;20.340;2023-05-10T06:47:50;9.70;;;5.53;;
54795;SDS011;40693;43.884;20.340;2023-05-10T06:50:16;7.07;;;4.85;;
54795;SDS011;40693;43.884;20.340;2023-05-10T06:52:41;6.68;;;4.65;;
54795;SDS011;40693;43.884;20.340;2023-05-10T06:55:07;6.43;;;4.22;;
54795;SDS011;40693;43.884;20.340;2023-05-10T06:57:34;7.55;;;4.10;;
54795;SDS011;40693;43.884;20.340;2023-05-10T06:59:59;5.63;;;4.03;;
54795;SDS011;40693;43.884;20.340;2023-05-10T07:02:26;5.50;;;3.47;;
54795;SDS011;40693;43.884;20.340;2023-05-10T07:04:51;5.68;;;4.22;;
54795;SDS011;40693;43.884;20.340;2023-05-10T07:07:17;5.30;;;3.92;;
54795;SDS011;40693;43.884;20.340;2023-05-10T07:09:43;6.78;;;4.70;;
54795;SDS011;40693;43.884;20.340;2023-05-10T07:12:10;5.43;;;2.95;;
54795;SDS011;40693;43.884;20.340;2023-05-10T07:14:35;8.70;;;5.00;;
54795;SDS011;40693;43.884;20.340;2023-05-10T07:17:01;5.68;;;3.60;;
54795;SDS011;40693;43.884;20.340;2023-05-10T07:19:27;6.75;;;4.22;;
54795;SDS011;40693;43.884;20.340;2023-05-10T07:21:54;4.65;;;3.92;;
54795;SDS011;40693;43.884;20.340;2023-05-10T07:24:20;6.43;;;3.17;;
54795;SDS011;40693;43.884;20.340;2023-05-10T07:26:46;4.38;;;3.60;;
54795;SDS011;40693;43.884;20.340;2023-05-10T07:29:11;4.88;;;3.20;;
54795;SDS011;40693;43.884;20.340;2023-05-10T07:31:37;4.75;;;3.25;;
54795;SDS011;40693;43.884;20.340;2023-05-10T07:34:03;5.03;;;3.63;;
54795;SDS011;40693;43.884;20.340;2023-05-10T07:36:29;3.70;;;2.80;;
54795;SDS011;40693;43.884;20.340;2023-05-10T07:38:54;4.75;;;3.33;;
54795;SDS011;40693;43.884;20.340;2023-05-10T07:41:22;15.35;;;7.70;;
54795;SDS011;40693;43.884;20.340;2023-05-10T07:43:48;4.43;;;3.08;;
54795;SDS011;40693;43.884;20.340;2023-05-10T07:46:14;5.60;;;3.83;;
54795;SDS011;40693;43.884;20.340;2023-05-10T07:48:39;5.97;;;3.53;;
54795;SDS011;40693;43.884;20.340;2023-05-10T07:51:05;5.00;;;3.72;;
54795;SDS011;40693;43.884;20.340;2023-05-10T07:53:32;5.70;;;3.28;;
54795;SDS011;40693;43.884;20.340;2023-05-10T07:55:58;4.20;;;2.75;;
54795;SDS011;40693;43.884;20.340;2023-05-10T07:58:24;7.00;;;2.88;;
54795;SDS011;40693;43.884;20.340;2023-05-10T08:00:50;5.18;;;3.25;;
54795;SDS011;40693;43.884;20.340;2023-05-10T08:03:15;4.90;;;2.97;;
54795;SDS011;40693;43.884;20.340;2023-05-10T08:05:41;4.57;;;2.22;;
54795;SDS011;40693;43.884;20.340;2023-05-10T08:08:07;6.03;;;3.97;;
54795;SDS011;40693;43.884;20.340;2023-05-10T08:10:33;13.57;;;5.45;;
54795;SDS011;40693;43.884;20.340;2023-05-10T08:12:59;4.80;;;3.05;;
54795;SDS011;40693;43.884;20.340;2023-05-10T08:15:24;6.07;;;3.55;;
54795;SDS011;40693;43.884;20.340;2023-05-10T08:17:53;6.70;;;2.63;;
54795;SDS011;40693;43.884;20.340;2023-05-10T08:20:19;5.47;;;3.33;;
54795;SDS011;40693;43.884;20.340;2023-05-10T08:22:45;6.93;;;3.80;;
54795;SDS011;40693;43.884;20.340;2023-05-10T08:25:12;4.82;;;3.13;;
54795;SDS011;40693;43.884;20.340;2023-05-10T08:27:37;4.82;;;3.03;;
54795;SDS011;40693;43.884;20.340;2023-05-10T08:30:03;5.80;;;2.67;;
54795;SDS011;40693;43.884;20.340;2023-05-10T08:32:29;5.35;;;3.08;;
54795;SDS011;40693;43.884;20.340;2023-05-10T08:34:55;5.70;;;3.10;;
54795;SDS011;40693;43.884;20.340;2023-05-10T08:37:22;5.15;;;3.00;;
54795;SDS011;40693;43.884;20.340;2023-05-10T08:39:49;5.53;;;2.80;;
54795;SDS011;40693;43.884;20.340;2023-05-10T08:42:16;7.22;;;3.75;;
54795;SDS011;40693;43.884;20.340;2023-05-10T08:44:48;4.82;;;3.05;;
54795;SDS011;40693;43.884;20.340;2023-05-10T08:47:15;6.22;;;3.45;;
54795;SDS011;40693;43.884;20.340;2023-05-10T08:49:43;4.15;;;2.47;;
54795;SDS011;40693;43.884;20.340;2023-05-10T08:52:13;6.47;;;2.90;;
54795;SDS011;40693;43.884;20.340;2023-05-10T08:54:40;6.50;;;2.72;;
54795;SDS011;40693;43.884;20.340;2023-05-10T08:57:06;8.25;;;2.63;;
54795;SDS011;40693;43.884;20.340;2023-05-10T08:59:32;4.88;;;2.97;;
54795;SDS011;40693;43.884;20.340;2023-05-10T09:01:58;4.20;;;3.03;;
54795;SDS011;40693;43.884;20.340;2023-05-10T09:04:25;4.43;;;2.92;;
54795;SDS011;40693;43.884;20.340;2023-05-10T09:06:51;7.18;;;3.35;;
54795;SDS011;40693;43.884;20.340;2023-05-10T09:09:19;5.60;;;3.38;;
54795;SDS011;40693;43.884;20.340;2023-05-10T09:11:46;3.97;;;2.42;;
54795;SDS011;40693;43.884;20.340;2023-05-10T09:14:12;6.72;;;3.47;;
54795;SDS011;40693;43.884;20.340;2023-05-10T09:16:39;7.28;;;3.53;;
54795;SDS011;40693;43.884;20.340;2023-05-10T09:19:06;4.40;;;3.08;;
54795;SDS011;40693;43.884;20.340;2023-05-10T09:21:34;2.70;;;2.50;;
54795;SDS011;40693;43.884;20.340;2023-05-10T09:24:06;6.90;;;4.40;;
54795;SDS011;40693;43.884;20.340;2023-05-10T09:26:32;4.88;;;3.50;;
54795;SDS011;40693;43.884;20.340;2023-05-10T09:29:00;5.80;;;3.50;;
54795;SDS011;40693;43.884;20.340;2023-05-10T09:34:20;7.13;;;4.40;;
54795;SDS011;40693;43.884;20.340;2023-05-10T09:36:58;4.47;;;3.33;;
54795;SDS011;40693;43.884;20.340;2023-05-10T09:39:36;4.30;;;3.65;;
54795;SDS011;40693;43.884;20.340;2023-05-10T09:42:06;6.13;;;3.30;;
54795;SDS011;40693;43.884;20.340;2023-05-10T09:44:34;6.72;;;4.47;;
54795;SDS011;40693;43.884;20.340;2023-05-10T09:47:01;6.85;;;5.00;;
54795;SDS011;40693;43.884;20.340;2023-05-10T09:49:27;4.07;;;3.15;;
54795;SDS011;40693;43.884;20.340;2023-05-10T09:51:59;10.45;;;3.45;;
54795;SDS011;40693;43.884;20.340;2023-05-10T09:54:25;7.60;;;3.55;;
54795;SDS011;40693;43.884;20.340;2023-05-10T09:56:50;5.72;;;3.17;;
54795;SDS011;40693;43.884;20.340;2023-05-10T09:59:16;6.30;;;3.38;;
54795;SDS011;40693;43.884;20.340;2023-05-10T10:01:44;7.15;;;3.35;;
54795;SDS011;40693;43.884;20.340;2023-05-10T10:04:18;6.15;;;2.78;;
54795;SDS011;40693;43.884;20.340;2023-05-10T10:06:46;5.85;;;3.47;;
54795;SDS011;40693;43.884;20.340;2023-05-10T10:09:22;4.20;;;3.17;;
54795;SDS011;40693;43.884;20.340;2023-05-10T10:11:49;6.35;;;3.15;;
54795;SDS011;40693;43.884;20.340;2023-05-10T10:14:16;4.82;;;3.22;;
54795;SDS011;40693;43.884;20.340;2023-05-10T10:16:43;5.57;;;2.72;;
54795;SDS011;40693;43.884;20.340;2023-05-10T10:19:10;7.88;;;3.72;;
54795;SDS011;40693;43.884;20.340;2023-05-10T10:21:35;4.43;;;3.92;;
54795;SDS011;40693;43.884;20.340;2023-05-10T10:24:01;5.43;;;3.20;;
54795;SDS011;40693;43.884;20.340;2023-05-10T10:26:30;9.75;;;3.83;;
54795;SDS011;40693;43.884;20.340;2023-05-10T10:29:12;4.75;;;3.88;;
54795;SDS011;40693;43.884;20.340;2023-05-10T10:35:00;5.00;;;2.72;;
54795;SDS011;40693;43.884;20.340;2023-05-10T10:37:40;6.40;;;3.40;;
54795;SDS011;40693;43.884;20.340;2023-05-10T10:42:55;6.43;;;3.42;;
54795;SDS011;40693;43.884;20.340;2023-05-10T10:45:40;6.65;;;4.45;;
54795;SDS011;40693;43.884;20.340;2023-05-10T10:48:21;6.13;;;3.95;;
54795;SDS011;40693;43.884;20.340;2023-05-10T10:50:48;7.20;;;3.20;;
54795;SDS011;40693;43.884;20.340;2023-05-10T10:53:37;6.57;;;2.97;;
54795;SDS011;40693;43.884;20.340;2023-05-10T10:56:07;4.78;;;3.05;;
54795;SDS011;40693;43.884;20.340;2023-05-10T10:58:35;4.95;;;3.40;;
54795;SDS011;40693;43.884;20.340;2023-05-10T11:01:15;5.40;;;3.20;;
54795;SDS011;40693;43.884;20.340;2023-05-10T11:06:33;4.53;;;3.08;;
54795;SDS011;40693;43.884;20.340;2023-05-10T11:09:06;6.75;;;3.35;;
54795;SDS011;40693;43.884;20.340;2023-05-10T11:11:34;9.02;;;3.95;;
54795;SDS011;40693;43.884;20.340;2023-05-10T11:14:04;18.48;;;4.75;;
54795;SDS011;40693;43.884;20.340;2023-05-10T11:16:41;5.88;;;2.97;;
54795;SDS011;40693;43.884;20.340;2023-05-10T11:19:11;6.05;;;3.40;;
54795;SDS011;40693;43.884;20.340;2023-05-10T11:21:51;7.00;;;3.20;;
54795;SDS011;40693;43.884;20.340;2023-05-10T11:24:29;7.93;;;3.47;;
54795;SDS011;40693;43.884;20.340;2023-05-10T11:26:55;8.23;;;3.50;;
54795;SDS011;40693;43.884;20.340;2023-05-10T11:29:21;4.35;;;2.83;;
54795;SDS011;40693;43.884;20.340;2023-05-10T11:31:48;4.75;;;3.17;;
54795;SDS011;40693;43.884;20.340;2023-05-10T11:34:27;8.77;;;3.15;;
54795;SDS011;40693;43.884;20.340;2023-05-10T11:37:03;4.63;;;4.15;;
54795;SDS011;40693;43.884;20.340;2023-05-10T11:39:30;5.30;;;3.00;;
54795;SDS011;40693;43.884;20.340;2023-05-10T11:41:56;4.40;;;3.05;;
54795;SDS011;40693;43.884;20.340;2023-05-10T11:44:23;4.68;;;2.97;;
54795;SDS011;40693;43.884;20.340;2023-05-10T11:46:53;6.32;;;3.67;;
54795;SDS011;40693;43.884;20.340;2023-05-10T11:49:20;6.63;;;2.85;;
54795;SDS011;40693;43.884;20.340;2023-05-10T11:51:48;5.68;;;3.40;;
54795;SDS011;40693;43.884;20.340;2023-05-10T11:54:13;8.13;;;3.55;;
54795;SDS011;40693;43.884;20.340;2023-05-10T11:56:39;9.65;;;4.47;;
54795;SDS011;40693;43.884;20.340;2023-05-10T11:59:06;7.60;;;3.10;;
54795;SDS011;40693;43.884;20.340;2023-05-10T12:01:32;9.50;;;4.90;;
54795;SDS011;40693;43.884;20.340;2023-05-10T12:03:59;5.57;;;3.13;;
54795;SDS011;40693;43.884;20.340;2023-05-10T12:06:31;3.95;;;3.05;;
54795;SDS011;40693;43.884;20.340;2023-05-10T12:09:05;5.10;;;3.47;;
54795;SDS011;40693;43.884;20.340;2023-05-10T12:11:31;6.60;;;3.63;;
54795;SDS011;40693;43.884;20.340;2023-05-10T12:13:57;11.85;;;4.28;;
54795;SDS011;40693;43.884;20.340;2023-05-10T12:16:24;8.02;;;4.60;;
54795;SDS011;40693;43.884;20.340;2023-05-10T12:18:53;4.78;;;3.47;;
54795;SDS011;40693;43.884;20.340;2023-05-10T12:21:21;6.05;;;3.35;;
54795;SDS011;40693;43.884;20.340;2023-05-10T12:23:51;5.90;;;3.70;;
54795;SDS011;40693;43.884;20.340;2023-05-10T12:26:18;8.48;;;3.33;;
54795;SDS011;40693;43.884;20.340;2023-05-10T12:28:47;7.40;;;3.40;;
54795;SDS011;40693;43.884;20.340;2023-05-10T12:31:12;7.25;;;3.78;;
54795;SDS011;40693;43.884;20.340;2023-05-10T12:33:39;6.78;;;3.38;;
54795;SDS011;40693;43.884;20.340;2023-05-10T12:36:09;5.72;;;3.83;;
54795;SDS011;40693;43.884;20.340;2023-05-10T12:38:37;6.93;;;4.68;;
54795;SDS011;40693;43.884;20.340;2023-05-10T12:41:07;4.55;;;3.42;;
54795;SDS011;40693;43.884;20.340;2023-05-10T12:43:37;6.15;;;3.97;;
54795;SDS011;40693;43.884;20.340;2023-05-10T12:46:05;4.97;;;3.92;;
54795;SDS011;40693;43.884;20.340;2023-05-10T12:48:35;7.30;;;4.10;;
54795;SDS011;40693;43.884;20.340;2023-05-10T12:51:01;7.68;;;4.15;;
54795;SDS011;40693;43.884;20.340;2023-05-10T12:53:28;6.22;;;3.50;;
54795;SDS011;40693;43.884;20.340;2023-05-10T12:55:54;7.85;;;4.40;;
54795;SDS011;40693;43.884;20.340;2023-05-10T12:58:20;5.40;;;4.30;;
54795;SDS011;40693;43.884;20.340;2023-05-10T13:00:46;7.68;;;4.13;;
54795;SDS011;40693;43.884;20.340;2023-05-10T13:03:11;8.88;;;5.13;;
54795;SDS011;40693;43.884;20.340;2023-05-10T13:05:37;5.47;;;3.72;;
54795;SDS011;40693;43.884;20.340;2023-05-10T13:08:03;6.15;;;4.00;;
54795;SDS011;40693;43.884;20.340;2023-05-10T13:10:30;5.53;;;3.33;;
54795;SDS011;40693;43.884;20.340;2023-05-10T13:12:56;8.80;;;4.05;;
54795;SDS011;40693;43.884;20.340;2023-05-10T13:15:26;6.40;;;3.70;;
54795;SDS011;40693;43.884;20.340;2023-05-10T13:17:52;14.23;;;5.15;;
54795;SDS011;40693;43.884;20.340;2023-05-10T13:20:19;8.55;;;3.92;;
54795;SDS011;40693;43.884;20.340;2023-05-10T13:22:44;10.70;;;3.75;;
54795;SDS011;40693;43.884;20.340;2023-05-10T13:25:10;8.00;;;4.57;;
54795;SDS011;40693;43.884;20.340;2023-05-10T13:27:39;6.53;;;3.63;;
54795;SDS011;40693;43.884;20.340;2023-05-10T13:30:06;9.13;;;3.97;;
54795;SDS011;40693;43.884;20.340;2023-05-10T13:32:33;7.85;;;3.45;;
54795;SDS011;40693;43.884;20.340;2023-05-10T13:34:58;7.32;;;3.35;;
54795;SDS011;40693;43.884;20.340;2023-05-10T13:37:24;9.02;;;3.80;;
54795;SDS011;40693;43.884;20.340;2023-05-10T13:39:50;5.55;;;3.72;;
54795;SDS011;40693;43.884;20.340;2023-05-10T13:42:16;4.95;;;3.60;;
54795;SDS011;40693;43.884;20.340;2023-05-10T13:44:42;7.47;;;4.53;;
54795;SDS011;40693;43.884;20.340;2023-05-10T13:47:08;5.35;;;3.33;;
54795;SDS011;40693;43.884;20.340;2023-05-10T13:49:35;5.95;;;3.83;;
54795;SDS011;40693;43.884;20.340;2023-05-10T13:52:01;4.22;;;3.30;;
54795;SDS011;40693;43.884;20.340;2023-05-10T13:54:34;8.75;;;3.45;;
54795;SDS011;40693;43.884;20.340;2023-05-10T13:57:00;5.82;;;3.72;;
54795;SDS011;40693;43.884;20.340;2023-05-10T13:59:26;4.13;;;3.08;;
54795;SDS011;40693;43.884;20.340;2023-05-10T14:01:52;4.57;;;3.30;;
54795;SDS011;40693;43.884;20.340;2023-05-10T14:04:18;8.45;;;3.63;;
54795;SDS011;40693;43.884;20.340;2023-05-10T14:06:43;4.80;;;3.70;;
54795;SDS011;40693;43.884;20.340;2023-05-10T14:09:09;7.45;;;3.63;;
54795;SDS011;40693;43.884;20.340;2023-05-10T14:11:35;9.60;;;2.95;;
54795;SDS011;40693;43.884;20.340;2023-05-10T14:14:00;5.30;;;3.97;;
54795;SDS011;40693;43.884;20.340;2023-05-10T14:16:26;7.72;;;3.50;;
54795;SDS011;40693;43.884;20.340;2023-05-10T14:18:52;6.32;;;4.03;;
54795;SDS011;40693;43.884;20.340;2023-05-10T14:21:18;6.28;;;2.80;;
54795;SDS011;40693;43.884;20.340;2023-05-10T14:23:43;5.15;;;3.40;;
54795;SDS011;40693;43.884;20.340;2023-05-10T14:26:09;6.32;;;3.85;;
54795;SDS011;40693;43.884;20.340;2023-05-10T14:28:35;7.03;;;3.60;;
54795;SDS011;40693;43.884;20.340;2023-05-10T14:31:01;7.82;;;4.53;;
54795;SDS011;40693;43.884;20.340;2023-05-10T14:33:27;9.15;;;3.78;;
54795;SDS011;40693;43.884;20.340;2023-05-10T14:35:53;10.48;;;6.47;;
54795;SDS011;40693;43.884;20.340;2023-05-10T14:38:21;15.82;;;8.30;;
54795;SDS011;40693;43.884;20.340;2023-05-10T14:40:47;9.55;;;5.43;;
54795;SDS011;40693;43.884;20.340;2023-05-10T14:43:13;6.10;;;4.03;;
54795;SDS011;40693;43.884;20.340;2023-05-10T14:45:39;11.80;;;3.63;;
54795;SDS011;40693;43.884;20.340;2023-05-10T14:48:05;7.97;;;4.03;;
54795;SDS011;40693;43.884;20.340;2023-05-10T14:50:31;6.22;;;3.63;;
54795;SDS011;40693;43.884;20.340;2023-05-10T14:52:57;5.07;;;3.65;;
54795;SDS011;40693;43.884;20.340;2023-05-10T14:55:24;5.93;;;3.75;;
54795;SDS011;40693;43.884;20.340;2023-05-10T14:57:50;6.18;;;3.85;;
54795;SDS011;40693;43.884;20.340;2023-05-10T15:00:16;6.25;;;3.30;;
54795;SDS011;40693;43.884;20.340;2023-05-10T15:02:44;7.20;;;3.45;;